Time;durP1;ratioP1;P1;durP2;ratioP2;P2;SDS_P1;SDS_P2;PMS_P1;PMS_P2;Temp;Humidity;BMP_temperature;BMP_pressure;BME280_temperature;BME280_humidity;BME280_pressure;Samples;Min_cycle;Max_cycle;Signal;HPM_P1;HPM_P2
2022/07/30 00:00:55;;;;;;;;;1.00;0.00;34.00;99.90;;;;;;4851476;29;8896;-71
2022/07/30 00:03:26;;;;;;;;;1.80;0.80;33.70;99.90;;;;;;4850843;29;8877;-71
2022/07/30 00:05:56;;;;;;;;;1.00;1.00;33.70;99.90;;;;;;4850804;29;9596;-72
2022/07/30 00:08:27;;;;;;;;;0.60;0.60;33.50;99.90;;;;;;4849318;29;8900;-70
2022/07/30 00:10:58;;;;;;;;;0.00;0.00;33.40;99.90;;;;;;4850541;29;8889;-69
2022/07/30 00:13:37;;;;;;;;;1.00;0.00;33.40;99.90;;;;;;4852509;29;8861;-70
2022/07/30 00:16:08;;;;;;;;;0.40;0.00;33.30;99.90;;;;;;4852161;29;8992;-70
2022/07/30 00:18:39;;;;;;;;;0.00;0.00;33.10;99.90;;;;;;4862868;29;9604;-70
2022/07/30 00:21:10;;;;;;;;;0.00;0.00;33.10;99.90;;;;;;4850797;29;8857;-70
2022/07/30 00:24:01;;;;;;;;;0.80;0.00;33.10;99.90;;;;;;4861809;29;8833;-70
2022/07/30 00:26:31;;;;;;;;;0.80;0.00;32.90;99.90;;;;;;4850900;29;8900;-71
2022/07/30 00:29:01;;;;;;;;;0.00;0.00;32.90;99.90;;;;;;4851005;29;8865;-72
2022/07/30 00:31:33;;;;;;;;;1.00;1.00;32.90;99.90;;;;;;4851713;29;8877;-70
2022/07/30 00:34:04;;;;;;;;;0.00;0.00;33.00;99.90;;;;;;4848043;29;8881;-70
2022/07/30 00:36:35;;;;;;;;;0.00;0.00;32.80;99.90;;;;;;4833680;29;8888;-70
2022/07/30 00:39:07;;;;;;;;;0.40;0.20;32.80;99.90;;;;;;4834380;29;8869;-71
2022/07/30 00:42:02;;;;;;;;;0.00;0.00;32.80;99.90;;;;;;4847967;29;9687;-70
2022/07/30 00:44:31;;;;;;;;;0.20;0.20;32.80;99.90;;;;;;4828094;29;8858;-70
2022/07/30 00:47:04;;;;;;;;;0.00;0.00;32.60;99.90;;;;;;4834310;29;9932;-70
2022/07/30 00:49:38;;;;;;;;;0.20;0.20;32.60;99.90;;;;;;4851141;29;8912;-71
2022/07/30 00:52:13;;;;;;;;;4.00;0.40;32.60;99.90;;;;;;4852517;29;8852;-71
2022/07/30 00:54:44;;;;;;;;;0.00;0.00;32.50;99.90;;;;;;4850840;29;9622;-70
2022/07/30 00:57:18;;;;;;;;;0.00;0.00;32.30;99.90;;;;;;4833176;29;8904;-71
2022/07/30 00:59:49;;;;;;;;;0.60;0.00;32.40;99.90;;;;;;4849799;29;8865;-70
2022/07/30 01:02:19;;;;;;;;;0.00;0.00;32.30;99.90;;;;;;4849349;29;8870;-70
2022/07/30 01:04:49;;;;;;;;;1.40;0.00;32.30;99.90;;;;;;4850665;29;8854;-70
2022/07/30 01:07:22;;;;;;;;;0.80;0.00;32.30;99.90;;;;;;4849372;29;8891;-70
2022/07/30 01:09:59;;;;;;;;;0.00;0.00;32.30;99.90;;;;;;4849824;29;8843;-71
2022/07/30 01:12:29;;;;;;;;;1.60;0.20;32.20;99.90;;;;;;4849843;29;8877;-70
2022/07/30 01:15:02;;;;;;;;;0.00;0.00;32.10;99.90;;;;;;4848547;29;8889;-71
2022/07/30 01:17:33;;;;;;;;;0.40;0.40;32.10;99.90;;;;;;4849261;29;8885;-70
2022/07/30 01:20:11;;;;;;;;;0.00;0.00;32.10;99.90;;;;;;4848669;29;8876;-70
2022/07/30 01:23:06;;;;;;;;;0.00;0.00;32.00;99.90;;;;;;4849718;29;8889;-72
2022/07/30 01:25:59;;;;;;;;;0.80;0.00;31.80;99.90;;;;;;4847254;29;9515;-71
2022/07/30 01:28:36;;;;;;;;;1.60;0.40;31.80;99.90;;;;;;4848316;29;8866;-70
2022/07/30 01:31:08;;;;;;;;;0.80;0.80;31.80;99.90;;;;;;4848660;29;8880;-71
2022/07/30 01:33:42;;;;;;;;;1.60;1.00;31.80;99.90;;;;;;4835374;29;8858;-70
2022/07/30 01:36:16;;;;;;;;;0.00;0.00;31.70;99.90;;;;;;4848652;29;8865;-72
2022/07/30 01:38:50;;;;;;;;;0.00;0.00;31.70;99.90;;;;;;4871075;29;8925;-70
2022/07/30 01:41:22;;;;;;;;;0.80;0.80;31.60;99.90;;;;;;4834714;29;9015;-71
2022/07/30 01:43:54;;;;;;;;;0.20;0.20;31.60;99.90;;;;;;4850438;29;8848;-71
2022/07/30 01:46:26;;;;;;;;;0.00;0.00;31.50;99.90;;;;;;4849150;29;8865;-69
2022/07/30 01:49:00;;;;;;;;;0.20;0.20;31.50;99.90;;;;;;4845683;29;8888;-68
2022/07/30 01:51:34;;;;;;;;;1.00;0.00;31.40;99.90;;;;;;4846608;29;8858;-70
2022/07/30 01:54:10;;;;;;;;;0.60;0.60;31.30;99.90;;;;;;4849178;29;8873;-70
2022/07/30 01:56:45;;;;;;;;;1.00;0.00;31.40;99.90;;;;;;4851177;29;8843;-69
2022/07/30 01:59:21;;;;;;;;;1.00;0.00;31.40;99.90;;;;;;4850633;29;8876;-70
2022/07/30 02:01:52;;;;;;;;;2.20;1.00;31.30;99.90;;;;;;4847473;29;8866;-70
2022/07/30 02:04:23;;;;;;;;;1.00;1.00;31.40;99.90;;;;;;4849924;29;8862;-71
2022/07/30 02:07:09;;;;;;;;;0.00;0.00;31.20;99.90;;;;;;4847250;29;8861;-71
2022/07/30 02:10:05;;;;;;;;;2.00;0.80;31.10;99.90;;;;;;4847315;29;8881;-71
2022/07/30 02:12:50;;;;;;;;;0.00;0.00;31.20;99.90;;;;;;4823985;29;8916;-70
2022/07/30 02:15:33;;;;;;;;;3.60;0.60;31.10;99.90;;;;;;4850316;29;8881;-71
2022/07/30 02:18:14;;;;;;;;;2.00;0.20;31.10;99.90;;;;;;4832462;29;8865;-69
2022/07/30 02:20:54;;;;;;;;;1.00;1.00;30.90;99.90;;;;;;4848561;29;8865;-69
2022/07/30 02:23:30;;;;;;;;;0.40;0.40;31.00;99.90;;;;;;4833329;29;9037;-71
2022/07/30 02:26:07;;;;;;;;;2.40;1.00;30.90;99.90;;;;;;4846969;29;8869;-71
2022/07/30 02:28:47;;;;;;;;;0.00;0.00;30.80;99.90;;;;;;4847016;29;8861;-71
2022/07/30 02:31:24;;;;;;;;;1.80;0.40;30.90;99.90;;;;;;4831074;29;8842;-71
2022/07/30 02:34:03;;;;;;;;;0.00;0.00;30.90;99.90;;;;;;4847279;29;8846;-71
2022/07/30 02:36:36;;;;;;;;;1.00;1.00;30.80;99.90;;;;;;4846000;29;8869;-71
2022/07/30 02:39:07;;;;;;;;;0.80;0.80;30.70;99.90;;;;;;4831055;29;8866;-71
2022/07/30 02:41:40;;;;;;;;;0.80;0.80;30.80;99.90;;;;;;4844727;29;8889;-71
2022/07/30 02:44:19;;;;;;;;;0.80;0.00;30.70;99.90;;;;;;4834739;29;9479;-71
2022/07/30 02:46:51;;;;;;;;;0.00;0.00;30.70;99.90;;;;;;4849897;29;8857;-71
2022/07/30 02:49:46;;;;;;;;;0.80;0.20;30.60;99.90;;;;;;4841253;29;8884;-71
2022/07/30 02:52:18;;;;;;;;;1.80;1.40;30.50;99.90;;;;;;4850083;29;8858;-68
2022/07/30 02:54:56;;;;;;;;;0.40;0.40;30.50;99.90;;;;;;4848157;29;8857;-68
2022/07/30 02:57:30;;;;;;;;;0.00;0.00;30.50;99.90;;;;;;4849550;29;8862;-71
2022/07/30 03:00:04;;;;;;;;;0.00;0.00;30.40;99.90;;;;;;4850836;29;9668;-71
2022/07/30 03:02:36;;;;;;;;;1.00;1.00;30.40;99.90;;;;;;4835414;29;8878;-71
2022/07/30 03:05:08;;;;;;;;;2.00;0.40;30.40;99.90;;;;;;4850197;29;8841;-70
2022/07/30 03:07:41;;;;;;;;;2.00;2.00;30.40;99.90;;;;;;4848758;29;8873;-71
2022/07/30 03:10:13;;;;;;;;;1.40;1.00;30.20;99.90;;;;;;4850811;29;8889;-70
2022/07/30 03:12:46;;;;;;;;;0.00;0.00;30.30;99.90;;;;;;4853929;29;8881;-70
2022/07/30 03:15:18;;;;;;;;;0.60;0.60;30.20;99.90;;;;;;4833766;29;9517;-70
2022/07/30 03:17:53;;;;;;;;;1.20;1.20;30.20;99.90;;;;;;4852739;29;8881;-70
2022/07/30 03:20:29;;;;;;;;;0.80;0.00;30.20;99.90;;;;;;4850009;29;8891;-71
2022/07/30 03:23:02;;;;;;;;;1.40;1.00;30.20;99.90;;;;;;4835423;29;8858;-70
2022/07/30 03:25:36;;;;;;;;;5.40;1.60;30.20;99.90;;;;;;4835237;29;10136;-70
2022/07/30 03:28:10;;;;;;;;;2.20;1.00;30.10;99.90;;;;;;4850865;29;8869;-69
2022/07/30 03:30:43;;;;;;;;;0.80;0.80;30.10;99.90;;;;;;4852046;29;8852;-68
2022/07/30 03:33:15;;;;;;;;;2.00;1.00;29.90;99.90;;;;;;4865506;29;8884;-71
2022/07/30 03:35:48;;;;;;;;;1.00;1.00;30.00;99.90;;;;;;4852776;29;8868;-71
2022/07/30 03:38:20;;;;;;;;;2.80;1.20;30.00;99.90;;;;;;4846993;29;8900;-69
2022/07/30 03:40:52;;;;;;;;;1.60;1.00;29.80;99.90;;;;;;4847275;29;8874;-70
2022/07/30 03:43:25;;;;;;;;;0.40;0.40;29.80;99.90;;;;;;4851196;29;8881;-71
2022/07/30 03:46:06;;;;;;;;;1.20;1.20;29.90;99.90;;;;;;4850762;29;8869;-71
2022/07/30 03:48:41;;;;;;;;;1.80;0.80;29.80;99.90;;;;;;4849402;29;8866;-71
2022/07/30 03:51:13;;;;;;;;;2.00;1.00;29.80;99.90;;;;;;4833808;29;8860;-71
2022/07/30 03:53:46;;;;;;;;;1.20;1.20;29.80;99.90;;;;;;4850232;29;8857;-71
2022/07/30 03:56:37;;;;;;;;;1.00;1.00;29.80;99.90;;;;;;4858734;29;8874;-71
2022/07/30 03:59:13;;;;;;;;;3.40;1.00;29.80;99.90;;;;;;4837434;29;8968;-71
2022/07/30 04:01:46;;;;;;;;;2.60;1.20;29.80;99.90;;;;;;4849224;29;8876;-71
2022/07/30 04:04:27;;;;;;;;;1.00;1.00;29.90;99.90;;;;;;4835285;29;8884;-71
2022/07/30 04:06:57;;;;;;;;;1.60;1.60;29.90;99.90;;;;;;4848816;29;9863;-68
2022/07/30 04:09:29;;;;;;;;;3.20;2.40;29.90;99.90;;;;;;4850958;29;8972;-69
2022/07/30 04:12:12;;;;;;;;;1.00;1.00;29.70;99.90;;;;;;4851283;29;8885;-68
2022/07/30 04:14:44;;;;;;;;;2.60;1.60;29.70;99.90;;;;;;4851670;29;9601;-68
2022/07/30 04:17:29;;;;;;;;;1.00;1.00;29.70;99.90;;;;;;4846820;29;8876;-71
2022/07/30 04:20:16;;;;;;;;;1.00;1.00;29.70;99.90;;;;;;4849846;29;8926;-71
2022/07/30 04:22:47;;;;;;;;;1.00;1.00;29.80;99.90;;;;;;4852503;29;8865;-71
2022/07/30 04:25:21;;;;;;;;;2.00;2.00;29.70;99.90;;;;;;4850284;29;8862;-71
2022/07/30 04:27:53;;;;;;;;;1.40;1.00;29.70;99.90;;;;;;4832803;29;8854;-71
2022/07/30 04:30:33;;;;;;;;;1.60;0.80;29.70;99.90;;;;;;4853862;29;8884;-72
2022/07/30 04:33:07;;;;;;;;;1.00;1.00;29.60;99.90;;;;;;4851899;29;8892;-71
2022/07/30 04:36:08;;;;;;;;;1.80;1.80;29.70;99.90;;;;;;4831972;29;8857;-71
2022/07/30 04:38:44;;;;;;;;;1.00;1.00;29.70;99.90;;;;;;4850936;29;8869;-71
2022/07/30 04:41:15;;;;;;;;;4.40;3.00;29.70;99.90;;;;;;4850928;29;8853;-71
2022/07/30 04:44:12;;;;;;;;;2.20;1.80;29.70;99.90;;;;;;4829381;29;8857;-71
2022/07/30 04:46:58;;;;;;;;;2.00;2.00;29.70;99.90;;;;;;4852793;29;8873;-71
2022/07/30 04:49:31;;;;;;;;;1.20;1.00;29.70;99.90;;;;;;4849274;29;8860;-72
2022/07/30 04:52:05;;;;;;;;;3.00;2.00;29.70;99.90;;;;;;4834698;29;8896;-70
2022/07/30 04:54:55;;;;;;;;;2.20;0.80;29.60;99.90;;;;;;4849823;29;9575;-70
2022/07/30 04:57:27;;;;;;;;;1.00;1.00;29.50;99.90;;;;;;4850037;29;10027;-68
2022/07/30 05:00:01;;;;;;;;;3.00;2.00;29.60;99.90;;;;;;4848995;29;9623;-68
2022/07/30 05:02:34;;;;;;;;;2.20;1.60;29.60;99.90;;;;;;4830945;29;8885;-68
2022/07/30 05:05:08;;;;;;;;;1.00;1.00;29.50;99.90;;;;;;4843618;29;8845;-68
2022/07/30 05:07:39;;;;;;;;;1.20;1.20;29.50;99.90;;;;;;4844021;29;9002;-70
2022/07/30 05:10:13;;;;;;;;;1.00;1.00;29.50;99.90;;;;;;4838160;29;8884;-71
2022/07/30 05:12:43;;;;;;;;;3.80;1.00;29.50;99.90;;;;;;4845717;29;8907;-71
2022/07/30 05:15:18;;;;;;;;;0.80;0.40;29.40;99.90;;;;;;4847512;29;8854;-81
2022/07/30 05:18:11;;;;;;;;;2.00;2.00;29.40;99.90;;;;;;4842748;29;8874;-70
2022/07/30 05:20:44;;;;;;;;;2.40;2.40;29.40;99.90;;;;;;4845022;29;9593;-70
2022/07/30 05:23:26;;;;;;;;;3.00;2.00;29.40;99.90;;;;;;4859919;29;8884;-74
2022/07/30 05:26:22;;;;;;;;;2.20;1.40;29.30;99.90;;;;;;4847089;29;8895;-71
2022/07/30 05:28:57;;;;;;;;;2.00;1.00;29.30;99.90;;;;;;4845949;29;8861;-72
2022/07/30 05:31:48;;;;;;;;;0.40;0.40;29.30;99.90;;;;;;4848800;29;8869;-70
2022/07/30 05:34:21;;;;;;;;;3.80;2.20;29.30;99.90;;;;;;4856302;29;8862;-70
2022/07/30 05:36:57;;;;;;;;;4.00;1.00;29.20;99.90;;;;;;4846193;29;8881;-73
2022/07/30 05:39:27;;;;;;;;;1.00;1.00;29.20;99.90;;;;;;4835417;29;8893;-73
2022/07/30 05:42:20;;;;;;;;;2.60;2.00;29.10;99.90;;;;;;4831534;29;8892;-70
2022/07/30 05:44:59;;;;;;;;;1.20;1.20;29.10;99.90;;;;;;4862311;29;8869;-71
2022/07/30 05:47:29;;;;;;;;;1.00;1.00;29.00;99.90;;;;;;4845239;29;8892;-70
2022/07/30 05:50:12;;;;;;;;;2.80;2.00;29.00;99.90;;;;;;4846818;29;8908;-70
2022/07/30 05:52:43;;;;;;;;;0.00;0.00;28.90;99.90;;;;;;4841710;29;8920;-70
2022/07/30 05:55:35;;;;;;;;;3.00;2.40;29.00;99.90;;;;;;4847282;29;8932;-70
2022/07/30 05:58:41;;;;;;;;;2.00;1.00;29.00;99.90;;;;;;4845533;29;8872;-70
2022/07/30 06:01:18;;;;;;;;;1.00;1.00;29.00;99.90;;;;;;4837279;29;8858;-70
2022/07/30 06:03:52;;;;;;;;;0.80;0.80;28.90;99.90;;;;;;4844121;29;8865;-71
2022/07/30 06:06:53;;;;;;;;;0.00;0.00;28.90;99.90;;;;;;4839025;29;8885;-75
2022/07/30 06:09:27;;;;;;;;;2.20;1.60;28.80;99.90;;;;;;4832167;29;8944;-75
2022/07/30 06:12:09;;;;;;;;;1.80;1.20;28.70;99.90;;;;;;4832606;29;9607;-74
2022/07/30 06:14:49;;;;;;;;;1.00;1.00;28.70;99.90;;;;;;4848255;29;8884;-75
2022/07/30 06:17:24;;;;;;;;;1.60;1.00;28.70;99.90;;;;;;4847409;29;10500;-75
2022/07/30 06:20:07;;;;;;;;;2.60;1.80;28.70;99.90;;;;;;4859601;29;8889;-75
2022/07/30 06:22:49;;;;;;;;;2.20;2.00;28.60;99.90;;;;;;4824648;29;8872;-74
2022/07/30 06:25:26;;;;;;;;;1.80;1.80;28.60;99.90;;;;;;4847915;29;10265;-75
2022/07/30 06:27:58;;;;;;;;;2.80;1.20;28.60;99.90;;;;;;4829892;29;8893;-75
2022/07/30 06:30:53;;;;;;;;;1.00;1.00;28.60;99.90;;;;;;4862018;29;8908;-75
2022/07/30 06:33:26;;;;;;;;;0.00;0.00;28.50;99.90;;;;;;4846215;29;8878;-74
2022/07/30 06:36:00;;;;;;;;;2.00;2.00;28.50;99.90;;;;;;4833177;29;8874;-75
2022/07/30 06:38:42;;;;;;;;;1.00;1.00;28.50;99.90;;;;;;4854965;29;8896;-73
2022/07/30 06:41:17;;;;;;;;;2.00;2.00;28.50;99.90;;;;;;4832878;29;8881;-70
2022/07/30 06:43:52;;;;;;;;;3.20;2.00;28.40;99.90;;;;;;4845862;29;8892;-70
2022/07/30 06:46:51;;;;;;;;;2.40;1.00;28.40;99.90;;;;;;4835865;29;8911;-70
2022/07/30 06:49:25;;;;;;;;;3.20;2.00;28.40;99.90;;;;;;4841478;29;8876;-70
2022/07/30 06:51:55;;;;;;;;;1.40;1.40;28.30;99.90;;;;;;4835243;29;9832;-73
2022/07/30 06:54:26;;;;;;;;;1.60;1.60;28.30;99.90;;;;;;4838148;29;8900;-73
2022/07/30 06:57:16;;;;;;;;;3.00;3.00;28.20;99.90;;;;;;4847464;29;8876;-73
2022/07/30 06:59:47;;;;;;;;;2.40;1.40;28.10;99.90;;;;;;4850592;29;8991;-74
2022/07/30 07:02:38;;;;;;;;;1.00;1.00;28.10;99.90;;;;;;4836024;29;8861;-73
2022/07/30 07:05:13;;;;;;;;;1.40;1.40;28.10;99.90;;;;;;4848881;29;8909;-73
2022/07/30 07:07:52;;;;;;;;;2.00;1.40;28.20;99.90;;;;;;4849550;29;9027;-72
2022/07/30 07:10:34;;;;;;;;;3.60;2.60;28.00;99.90;;;;;;4844692;29;8877;-70
2022/07/30 07:13:14;;;;;;;;;2.00;2.00;28.00;99.90;;;;;;4860406;29;8896;-74
2022/07/30 07:15:45;;;;;;;;;2.40;2.40;28.00;99.90;;;;;;4830150;29;9653;-74
2022/07/30 07:18:19;;;;;;;;;2.00;2.00;27.90;99.90;;;;;;4834869;29;8873;-73
2022/07/30 07:21:08;;;;;;;;;1.60;0.00;27.80;99.90;;;;;;4829723;29;8889;-73
2022/07/30 07:23:40;;;;;;;;;7.80;3.00;27.80;99.90;;;;;;4848371;29;8853;-73
2022/07/30 07:26:40;;;;;;;;;2.00;2.00;27.90;99.90;;;;;;4848945;29;8861;-74
2022/07/30 07:29:10;;;;;;;;;0.80;0.80;27.80;99.90;;;;;;4844952;29;8884;-73
2022/07/30 07:31:52;;;;;;;;;2.00;2.00;27.80;99.90;;;;;;4846275;29;8861;-74
2022/07/30 07:34:39;;;;;;;;;1.40;1.40;27.80;99.90;;;;;;4833789;29;9531;-74
2022/07/30 07:37:14;;;;;;;;;1.20;1.00;27.70;99.90;;;;;;4861702;29;8874;-74
2022/07/30 07:39:47;;;;;;;;;3.20;3.20;27.70;99.90;;;;;;4844870;29;9734;-75
2022/07/30 07:42:19;;;;;;;;;0.80;0.80;27.70;99.90;;;;;;4828772;29;8897;-71
2022/07/30 07:44:50;;;;;;;;;1.80;1.80;27.70;99.90;;;;;;4826321;29;8858;-70
2022/07/30 07:47:22;;;;;;;;;1.60;1.40;27.60;99.90;;;;;;4829527;29;8873;-69
2022/07/30 07:50:09;;;;;;;;;1.40;1.40;27.50;99.90;;;;;;4841696;29;8873;-70
2022/07/30 07:52:41;;;;;;;;;3.00;2.00;27.50;99.90;;;;;;4847007;29;8878;-74
2022/07/30 07:55:19;;;;;;;;;2.00;2.00;27.40;99.90;;;;;;4845418;29;8870;-74
2022/07/30 07:57:49;;;;;;;;;2.00;2.00;27.40;99.90;;;;;;4829831;29;8865;-74
2022/07/30 08:00:21;;;;;;;;;1.60;1.60;27.40;99.90;;;;;;4845797;29;8873;-74
2022/07/30 08:02:56;;;;;;;;;3.40;3.40;27.40;99.90;;;;;;4828642;29;8892;-74
2022/07/30 08:05:28;;;;;;;;;1.00;0.00;27.30;99.90;;;;;;4845679;29;8927;-74
2022/07/30 08:08:29;;;;;;;;;3.20;3.00;27.30;99.90;;;;;;4848947;29;9700;-71
2022/07/30 08:11:37;;;;;;;;;3.00;3.00;27.30;99.90;;;;;;4830698;29;8890;-73
2022/07/30 08:14:48;;;;;;;;;2.40;2.40;27.30;99.90;;;;;;4779363;29;8895;-74
2022/07/30 08:17:50;;;;;;;;;4.00;2.00;27.30;99.90;;;;;;4752113;29;8932;-74
2022/07/30 08:20:29;;;;;;;;;3.40;3.40;27.20;99.90;;;;;;4774531;29;8879;-74
2022/07/30 08:23:07;;;;;;;;;2.40;2.00;27.10;99.90;;;;;;4789459;29;8891;-73
2022/07/30 08:25:36;;;;;;;;;3.00;3.00;27.10;99.90;;;;;;4793635;29;8877;-74
2022/07/30 08:28:08;;;;;;;;;2.20;2.20;27.20;99.90;;;;;;4843844;29;8873;-71
2022/07/30 08:31:01;;;;;;;;;2.60;2.60;27.10;99.90;;;;;;4847378;29;8869;-74
2022/07/30 08:33:37;;;;;;;;;2.00;2.00;27.10;99.90;;;;;;4862121;29;8849;-74
2022/07/30 08:36:10;;;;;;;;;3.80;2.20;27.10;99.90;;;;;;4840055;29;8877;-70
2022/07/30 08:38:40;;;;;;;;;3.00;3.00;27.00;99.90;;;;;;4843518;29;8853;-71
2022/07/30 08:41:17;;;;;;;;;1.20;1.20;27.00;99.90;;;;;;4860453;29;8871;-74
2022/07/30 08:43:50;;;;;;;;;3.80;3.80;27.10;99.90;;;;;;4862814;29;8850;-74
2022/07/30 08:46:25;;;;;;;;;3.40;3.40;27.10;99.90;;;;;;4849117;29;8865;-74
2022/07/30 08:49:01;;;;;;;;;3.40;1.80;27.00;99.90;;;;;;4846154;29;8861;-74
2022/07/30 08:51:41;;;;;;;;;3.40;2.80;27.00;99.90;;;;;;4830260;29;8901;-72
2022/07/30 08:54:19;;;;;;;;;3.60;2.00;27.00;99.90;;;;;;4854305;29;9368;-70
2022/07/30 08:56:54;;;;;;;;;6.00;2.00;26.90;99.90;;;;;;4842408;29;8882;-73
2022/07/30 08:59:26;;;;;;;;;2.00;2.00;26.80;99.90;;;;;;4842465;29;8862;-72
2022/07/30 09:02:16;;;;;;;;;1.20;1.20;26.80;99.90;;;;;;4841162;29;8873;-73
2022/07/30 09:05:06;;;;;;;;;6.00;3.20;26.90;99.90;;;;;;4838185;29;8870;-73
2022/07/30 09:07:36;;;;;;;;;4.60;4.60;26.80;99.90;;;;;;4844388;29;8869;-71
2022/07/30 09:10:13;;;;;;;;;2.00;2.00;26.90;99.90;;;;;;4844463;29;8889;-71
2022/07/30 09:12:46;;;;;;;;;2.00;2.00;26.80;99.90;;;;;;4846378;29;8900;-71
2022/07/30 09:15:22;;;;;;;;;5.20;4.80;26.90;99.90;;;;;;4845352;29;9289;-71
2022/07/30 09:17:56;;;;;;;;;2.00;2.00;26.80;99.90;;;;;;4844234;29;8849;-73
2022/07/30 09:20:33;;;;;;;;;2.80;2.80;26.70;99.90;;;;;;4848940;29;8921;-74
2022/07/30 09:23:08;;;;;;;;;1.00;1.00;26.60;99.90;;;;;;4845633;29;8853;-74
2022/07/30 09:26:01;;;;;;;;;2.80;2.80;26.70;99.90;;;;;;4846153;29;8880;-72
2022/07/30 09:28:38;;;;;;;;;5.00;3.80;26.60;99.90;;;;;;4852337;29;8891;-72
2022/07/30 09:31:28;;;;;;;;;2.80;2.80;26.60;99.90;;;;;;4807097;29;9203;-74
2022/07/30 09:34:25;;;;;;;;;2.80;2.80;26.60;99.90;;;;;;4854712;29;8829;-73
2022/07/30 09:37:18;;;;;;;;;2.25;2.25;26.60;99.90;;;;;;4854011;29;8829;-73
2022/07/30 09:40:18;;;;;;;;;4.00;4.00;26.50;99.90;;;;;;4846864;29;8866;-73
2022/07/30 09:43:17;;;;;;;;;1.80;1.80;26.40;99.90;;;;;;4844815;29;8876;-73
2022/07/30 09:45:53;;;;;;;;;3.60;3.60;26.50;99.90;;;;;;4845502;29;8861;-71
2022/07/30 09:48:30;;;;;;;;;0.60;0.00;26.50;99.90;;;;;;4826310;29;8907;-71
2022/07/30 09:51:05;;;;;;;;;2.00;2.00;26.40;99.90;;;;;;4858751;29;8888;-75
2022/07/30 09:54:00;;;;;;;;;3.00;3.00;26.40;99.90;;;;;;4848952;29;8897;-73
2022/07/30 09:56:35;;;;;;;;;4.60;4.60;26.40;99.90;;;;;;4843604;29;8931;-74
2022/07/30 09:59:16;;;;;;;;;2.20;2.20;26.30;99.90;;;;;;4844379;29;8869;-74
2022/07/30 10:01:55;;;;;;;;;2.00;0.00;26.30;99.90;;;;;;4848714;29;8846;-73
2022/07/30 10:04:49;;;;;;;;;2.60;2.40;26.40;99.90;;;;;;4839297;29;8908;-73
2022/07/30 10:07:21;;;;;;;;;3.00;3.00;26.40;99.90;;;;;;4844017;29;8881;-73
2022/07/30 10:09:59;;;;;;;;;2.60;2.60;26.40;99.90;;;;;;4844433;29;8888;-73
2022/07/30 10:12:32;;;;;;;;;5.50;4.50;26.30;99.90;;;;;;4831288;29;8917;-70
2022/07/30 10:15:11;;;;;;;;;4.50;4.50;26.30;99.90;;;;;;4839990;29;9043;-70
2022/07/30 10:17:42;;;;;;;;;6.20;3.20;26.20;99.90;;;;;;4830079;29;8928;-70
2022/07/30 10:20:28;;;;;;;;;4.00;4.00;26.30;99.90;;;;;;4844314;29;8881;-72
2022/07/30 10:23:08;;;;;;;;;4.25;4.00;26.20;99.90;;;;;;4850639;29;8873;-73
2022/07/30 10:26:17;;;;;;;;;1.40;1.40;26.10;99.90;;;;;;4826058;29;8881;-74
2022/07/30 10:29:23;;;;;;;;;4.00;4.00;26.10;99.90;;;;;;4777315;29;8878;-73
2022/07/30 10:32:02;;;;;;;;;2.75;2.00;26.10;99.90;;;;;;4835135;29;8907;-74
2022/07/30 10:34:32;;;;;;;;;2.00;2.00;26.00;99.90;;;;;;4861426;29;8883;-73
2022/07/30 10:37:08;;;;;;;;;3.25;3.25;26.10;99.90;;;;;;4827637;29;8912;-70
2022/07/30 10:39:55;;;;;;;;;5.25;4.00;26.10;99.90;;;;;;4844367;29;8882;-71
2022/07/30 10:42:55;;;;;;;;;3.00;3.00;26.10;99.90;;;;;;4844693;29;8876;-74
2022/07/30 10:45:37;;;;;;;;;3.00;3.00;26.00;99.90;;;;;;4848323;29;8850;-73
2022/07/30 10:48:14;;;;;;;;;4.00;3.00;26.10;99.90;;;;;;4846615;29;8900;-69
2022/07/30 10:50:58;;;;;;;;;3.50;3.25;26.00;99.90;;;;;;4826614;29;8873;-70
2022/07/30 10:53:47;;;;;;;;;4.00;4.00;26.00;99.90;;;;;;4849294;29;8864;-73
2022/07/30 10:56:22;;;;;;;;;3.75;3.75;26.00;99.90;;;;;;4841619;29;8842;-73
2022/07/30 10:59:05;;;;;;;;;3.50;3.00;26.00;99.90;;;;;;4841860;29;8879;-73
2022/07/30 11:01:49;;;;;;;;;3.25;3.25;26.00;99.90;;;;;;4843277;29;8878;-70
2022/07/30 11:04:29;;;;;;;;;5.00;3.75;26.00;99.90;;;;;;4847980;29;8870;-71
2022/07/30 11:07:21;;;;;;;;;4.00;4.00;25.90;99.90;;;;;;4841470;29;8854;-73
2022/07/30 11:09:54;;;;;;;;;5.50;4.00;25.80;99.90;;;;;;4843783;29;8880;-72
2022/07/30 11:12:46;;;;;;;;;5.50;2.50;26.00;99.90;;;;;;4843409;29;8864;-73
2022/07/30 11:15:21;;;;;;;;;4.00;4.00;25.80;99.90;;;;;;4846176;29;8841;-74
2022/07/30 11:18:03;;;;;;;;;2.00;2.00;25.80;99.90;;;;;;4843897;29;8884;-73
2022/07/30 11:20:42;;;;;;;;;5.25;3.00;25.90;99.90;;;;;;4850230;29;9038;-73
2022/07/30 11:23:23;;;;;;;;;4.00;4.00;25.90;99.90;;;;;;4819115;29;8902;-73
2022/07/30 11:25:55;;;;;;;;;3.00;3.00;25.80;99.90;;;;;;4850181;29;8861;-72
2022/07/30 11:28:45;;;;;;;;;2.25;2.25;25.90;99.90;;;;;;4850840;29;9810;-73
2022/07/30 11:31:26;;;;;;;;;6.75;5.25;25.80;99.90;;;;;;4849771;29;8865;-70
2022/07/30 11:34:20;;;;;;;;;2.75;2.75;25.80;99.90;;;;;;4848370;29;8861;-71
2022/07/30 11:37:13;;;;;;;;;4.75;3.75;25.80;99.90;;;;;;4849296;29;8853;-74
2022/07/30 11:39:55;;;;;;;;;6.25;4.25;25.70;99.90;;;;;;4847611;29;8889;-75
2022/07/30 11:42:30;;;;;;;;;3.00;2.50;25.70;99.90;;;;;;4846417;29;8853;-72
2022/07/30 11:45:22;;;;;;;;;4.75;4.75;25.70;99.90;;;;;;4829361;29;9347;-71
2022/07/30 11:47:54;;;;;;;;;3.25;3.25;25.70;99.90;;;;;;4848592;29;8884;-71
2022/07/30 11:50:31;;;;;;;;;4.25;2.75;25.70;99.90;;;;;;4846742;29;8849;-71
2022/07/30 11:53:04;;;;;;;;;3.25;3.25;25.70;99.90;;;;;;4846925;29;8877;-74
2022/07/30 11:55:46;;;;;;;;;5.00;5.00;25.60;99.90;;;;;;4849584;29;9656;-75
2022/07/30 11:58:36;;;;;;;;;4.00;3.50;25.70;99.90;;;;;;4851836;29;8841;-72
2022/07/30 12:01:17;;;;;;;;;5.00;5.00;25.80;99.90;;;;;;4850843;29;8850;-73
2022/07/30 12:03:47;;;;;;;;;5.50;3.50;25.70;99.90;;;;;;4849116;29;8976;-75
2022/07/30 12:06:22;;;;;;;;;4.25;4.25;25.70;99.90;;;;;;4847284;29;9462;-74
2022/07/30 12:08:53;;;;;;;;;5.75;3.75;25.70;99.90;;;;;;4851651;29;8928;-74
2022/07/30 12:11:34;;;;;;;;;4.00;4.00;25.70;99.90;;;;;;4847906;29;8830;-74
2022/07/30 12:14:08;;;;;;;;;3.25;3.25;25.70;99.90;;;;;;4849887;29;8860;-74
2022/07/30 12:16:41;;;;;;;;;3.25;3.25;25.70;99.90;;;;;;4850994;29;8877;-74
2022/07/30 12:19:12;;;;;;;;;4.50;3.50;25.80;99.90;;;;;;4849040;29;8878;-74
2022/07/30 12:21:47;;;;;;;;;3.50;2.50;25.80;99.90;;;;;;4850681;29;8897;-73
2022/07/30 12:24:26;;;;;;;;;5.25;4.25;25.80;99.90;;;;;;4837077;29;8889;-73
2022/07/30 12:27:07;;;;;;;;;2.50;2.50;25.70;99.90;;;;;;4835488;29;9912;-73
2022/07/30 12:29:36;;;;;;;;;4.00;4.00;25.70;99.90;;;;;;4851542;29;8877;-74
2022/07/30 12:32:08;;;;;;;;;4.00;4.00;25.80;99.90;;;;;;4849401;29;8853;-73
2022/07/30 12:34:40;;;;;;;;;4.00;3.25;25.80;99.90;;;;;;4848438;29;8876;-74
2022/07/30 12:37:09;;;;;;;;;4.00;4.00;25.80;99.90;;;;;;4843659;29;8896;-74
2022/07/30 12:39:42;;;;;;;;;0.00;0.00;25.80;99.90;;;;;;4849911;29;8857;-74
2022/07/30 12:42:23;;;;;;;;;4.00;4.00;25.80;99.90;;;;;;4847805;29;8899;-74
2022/07/30 12:44:55;;;;;;;;;5.00;3.25;26.00;99.90;;;;;;4865136;29;8865;-74
2022/07/30 12:47:30;;;;;;;;;3.00;3.00;26.00;99.90;;;;;;4835844;29;8881;-74
2022/07/30 12:50:05;;;;;;;;;4.00;4.00;25.90;99.90;;;;;;4848790;29;8850;-74
2022/07/30 12:52:42;;;;;;;;;4.25;2.50;26.10;99.90;;;;;;4849070;29;8850;-74
2022/07/30 12:55:13;;;;;;;;;5.50;4.75;26.10;99.90;;;;;;4832266;29;8892;-73
2022/07/30 12:58:05;;;;;;;;;5.50;4.00;26.20;99.90;;;;;;4835122;29;8853;-74
2022/07/30 13:00:53;;;;;;;;;6.50;4.75;26.20;99.90;;;;;;4850456;29;8892;-74
2022/07/30 13:03:37;;;;;;;;;5.50;4.75;26.20;99.90;;;;;;4844157;29;8837;-73
2022/07/30 13:06:16;;;;;;;;;4.00;4.00;26.30;99.90;;;;;;4847172;29;8849;-74
2022/07/30 13:08:51;;;;;;;;;4.50;4.00;26.40;99.90;;;;;;4847741;29;8869;-74
2022/07/30 13:11:25;;;;;;;;;3.25;3.25;26.30;99.90;;;;;;4848135;29;8849;-73
2022/07/30 13:13:56;;;;;;;;;4.25;4.25;26.40;99.90;;;;;;4830766;29;8865;-73
2022/07/30 13:16:33;;;;;;;;;3.00;3.00;26.40;99.90;;;;;;4849570;29;8883;-73
2022/07/30 13:19:11;;;;;;;;;7.00;5.75;26.40;99.90;;;;;;4860399;29;8863;-73
2022/07/30 13:21:45;;;;;;;;;5.50;5.00;26.50;99.90;;;;;;4850109;29;8861;-73
2022/07/30 13:24:21;;;;;;;;;4.50;4.50;26.70;99.90;;;;;;4851920;29;8845;-73
2022/07/30 13:26:51;;;;;;;;;6.50;5.00;26.70;99.90;;;;;;4850750;29;8842;-69
2022/07/30 13:29:21;;;;;;;;;4.50;4.50;26.70;99.90;;;;;;4849579;29;8920;-68
2022/07/30 13:31:54;;;;;;;;;5.00;5.00;26.80;99.90;;;;;;4847753;29;8861;-75
2022/07/30 13:34:24;;;;;;;;;5.75;5.75;26.90;99.90;;;;;;4847912;29;8884;-72
2022/07/30 13:36:53;;;;;;;;;3.00;3.00;26.90;99.90;;;;;;4847454;29;8869;-72
2022/07/30 13:39:25;;;;;;;;;4.25;4.25;27.00;99.90;;;;;;4835340;29;8865;-73
2022/07/30 13:41:57;;;;;;;;;3.00;2.00;27.10;99.90;;;;;;4845690;29;8842;-74
2022/07/30 13:44:27;;;;;;;;;5.50;5.50;27.10;99.90;;;;;;4851589;29;9624;-74
2022/07/30 13:46:59;;;;;;;;;5.75;4.50;27.10;99.90;;;;;;4846807;29;9771;-74
2022/07/30 13:49:30;;;;;;;;;9.00;6.00;27.20;99.90;;;;;;4847575;29;8906;-74
2022/07/30 13:52:01;;;;;;;;;4.75;4.00;27.30;99.90;;;;;;4849987;29;8849;-74
2022/07/30 13:54:31;;;;;;;;;4.00;4.00;27.40;99.90;;;;;;4844615;29;8896;-74